createdAt,value
2023-03-22T00:01:41.516Z,46.67
2023-03-22T00:04:11.556Z,45.00
2023-03-22T00:06:41.963Z,45.10
2023-03-22T00:09:12.176Z,48.70
2023-03-22T00:11:42.919Z,45.50
2023-03-22T00:14:13.137Z,46.80
2023-03-22T00:16:46.632Z,46.23
2023-03-22T00:19:16.542Z,45.67
2023-03-22T00:21:47.593Z,48.20
2023-03-22T00:24:18.001Z,51.87
2023-03-22T00:26:48.743Z,53.27
2023-03-22T00:29:20.402Z,49.07
2023-03-22T00:31:52.718Z,50.67
2023-03-22T00:34:23.002Z,54.60
2023-03-22T00:36:53.933Z,56.07
2023-03-22T00:39:24.260Z,54.50
2023-03-22T00:41:54.377Z,57.03
2023-03-22T00:44:24.908Z,51.73
2023-03-22T00:46:56.864Z,53.80
2023-03-22T00:49:28.124Z,53.77
2023-03-22T00:51:58.468Z,52.37
2023-03-22T00:54:28.853Z,46.47
2023-03-22T00:56:59.115Z,45.57
2023-03-22T00:59:29.914Z,52.53
2023-03-22T01:02:01.684Z,45.20
2023-03-22T01:04:32.108Z,46.87
2023-03-22T01:07:04.471Z,45.60
2023-03-22T01:09:34.597Z,46.63
2023-03-22T01:12:04.718Z,46.60
2023-03-22T01:14:35.032Z,47.27
2023-03-22T01:17:07.815Z,47.90
2023-03-22T01:19:39.363Z,46.83
2023-03-22T01:22:10.719Z,46.27
2023-03-22T01:24:41.142Z,47.27
2023-03-22T01:27:12.086Z,45.63
2023-03-22T01:29:42.548Z,44.67
2023-03-22T01:32:15.580Z,45.50
2023-03-22T01:34:46.229Z,45.90
2023-03-22T01:37:18.293Z,44.00
2023-03-22T01:39:50.044Z,45.73
2023-03-22T01:42:22.933Z,43.67
2023-03-22T01:45:40.662Z,44.20
2023-03-22T01:48:18.274Z,43.73
2023-03-22T01:50:58.104Z,43.20
2023-03-22T01:53:30.379Z,47.27
2023-03-22T01:56:01.101Z,45.83
2023-03-22T01:58:39.008Z,46.30
2023-03-22T02:01:13.073Z,46.37
2023-03-22T02:04:04.133Z,45.57
2023-03-22T02:06:34.443Z,43.63
2023-03-22T02:09:09.988Z,43.43
2023-03-22T02:11:43.109Z,44.37
2023-03-22T02:14:44.739Z,44.70
2023-03-22T02:18:00.223Z,44.13
2023-03-22T02:21:20.932Z,44.40
2023-03-22T02:24:15.111Z,46.30
2023-03-22T02:27:09.815Z,44.63
2023-03-22T02:29:45.771Z,45.13
2023-03-22T02:32:53.972Z,42.23
2023-03-22T02:35:36.303Z,45.47
2023-03-22T02:38:58.325Z,43.53
2023-03-22T02:41:45.025Z,45.27
2023-03-22T02:44:24.938Z,44.60
2023-03-22T02:47:04.931Z,43.33
2023-03-22T02:49:42.002Z,43.93
2023-03-22T02:52:18.278Z,45.20
2023-03-22T02:54:57.401Z,46.37
2023-03-22T02:57:35.534Z,44.73
2023-03-22T03:00:13.311Z,45.87
2023-03-22T03:02:47.418Z,49.80
2023-03-22T03:05:19.590Z,48.83
2023-03-22T03:07:54.412Z,48.40
2023-03-22T03:10:27.300Z,47.07
2023-03-22T03:13:00.131Z,46.23
2023-03-22T03:15:31.933Z,47.33
2023-03-22T03:18:22.223Z,45.57
2023-03-22T03:21:02.905Z,48.77
2023-03-22T03:23:42.427Z,50.20
2023-03-22T03:26:23.033Z,49.67
2023-03-22T03:29:00.105Z,54.27
2023-03-22T03:31:37.543Z,52.60
2023-03-22T03:34:18.047Z,53.97
2023-03-22T03:36:55.937Z,51.07
2023-03-22T03:39:28.524Z,52.87
2023-03-22T03:41:59.754Z,52.83
2023-03-22T03:44:32.153Z,51.37
2023-03-22T03:47:03.571Z,52.37
2023-03-22T03:49:33.811Z,52.63
2023-03-22T03:52:05.458Z,52.30
2023-03-22T03:54:35.477Z,50.73
2023-03-22T03:57:07.847Z,49.80
2023-03-22T03:59:40.829Z,50.20
2023-03-22T04:02:20.092Z,52.27
2023-03-22T04:04:51.323Z,52.27
2023-03-22T04:07:22.857Z,51.63
2023-03-22T04:09:52.721Z,51.00
2023-03-22T04:12:30.268Z,49.67
2023-03-22T04:15:17.488Z,50.87
2023-03-22T04:17:54.365Z,47.67
2023-03-22T04:20:27.460Z,49.20
2023-03-22T04:22:58.693Z,47.63
2023-03-22T04:25:31.016Z,48.37
2023-03-22T04:28:08.059Z,47.17
2023-03-22T04:30:40.307Z,48.13
2023-03-22T04:33:28.554Z,47.60
2023-03-22T04:36:20.288Z,46.40
2023-03-22T04:39:11.617Z,47.07
2023-03-22T04:41:43.775Z,49.10
2023-03-22T04:44:13.893Z,47.73
2023-03-22T04:46:51.708Z,45.67
2023-03-22T04:49:21.920Z,47.40
2023-03-22T04:51:52.449Z,47.67
2023-03-22T04:54:32.913Z,53.47
2023-03-22T04:57:02.913Z,51.00
2023-03-22T04:59:40.521Z,54.47
2023-03-22T05:02:11.965Z,55.00
2023-03-22T05:04:45.464Z,55.40
2023-03-22T05:07:25.714Z,55.40
2023-03-22T05:09:59.204Z,54.90
2023-03-22T05:12:29.335Z,57.97
2023-03-22T05:15:06.643Z,57.90
2023-03-22T05:17:41.860Z,58.40
2023-03-22T05:20:14.235Z,59.50
2023-03-22T05:22:50.910Z,58.57
2023-03-22T05:25:22.782Z,61.93
2023-03-22T05:27:54.820Z,57.47
2023-03-22T05:30:45.780Z,59.00
2023-03-22T05:33:47.291Z,57.33
2023-03-22T05:36:22.227Z,59.27
2023-03-22T05:39:24.385Z,59.23
2023-03-22T05:41:55.024Z,62.60
2023-03-22T05:44:25.034Z,54.13
2023-03-22T05:47:04.502Z,55.07
2023-03-22T05:50:03.184Z,57.10
2023-03-22T05:52:34.750Z,54.13
2023-03-22T05:55:19.281Z,55.73
2023-03-22T05:57:58.311Z,62.77
2023-03-22T06:00:32.629Z,61.97
2023-03-22T06:03:25.899Z,62.60
2023-03-22T06:06:03.165Z,61.17
2023-03-22T06:08:41.699Z,58.77
2023-03-22T06:11:13.049Z,65.13
2023-03-22T06:13:43.316Z,61.03
2023-03-22T06:16:14.847Z,59.17
2023-03-22T06:18:46.060Z,55.47
2023-03-22T06:21:17.502Z,59.53
2023-03-22T06:23:47.426Z,55.53
2023-03-22T06:26:18.980Z,60.20
2023-03-22T06:28:48.997Z,75.43
2023-03-22T06:31:24.026Z,76.03
2023-03-22T06:33:59.149Z,84.77
2023-03-22T06:36:41.463Z,67.10
2023-03-22T06:39:15.357Z,56.40
2023-03-22T06:41:48.146Z,52.73
2023-03-22T06:44:18.270Z,56.53
2023-03-22T06:46:54.222Z,54.17
2023-03-22T06:49:50.446Z,53.80
2023-03-22T06:52:35.417Z,55.03
2023-03-22T06:55:10.149Z,54.10
2023-03-22T06:57:40.273Z,54.43
2023-03-22T07:00:13.959Z,58.10
2023-03-22T07:02:43.992Z,50.07
2023-03-22T07:05:49.839Z,59.53
2023-03-22T07:08:21.927Z,51.87
2023-03-22T07:10:54.473Z,51.87
2023-03-22T07:13:26.753Z,51.17
2023-03-22T07:16:03.310Z,52.20
2023-03-22T07:18:53.201Z,52.70
2023-03-22T07:21:23.320Z,50.23
2023-03-22T07:24:00.203Z,48.40
2023-03-22T07:26:32.793Z,47.53
2023-03-22T07:29:04.643Z,46.67
2023-03-22T07:31:38.146Z,45.33
2023-03-22T07:34:28.633Z,44.97
2023-03-22T07:37:11.930Z,41.70
2023-03-22T07:39:45.463Z,43.23
2023-03-22T07:42:15.805Z,48.40
2023-03-22T07:44:47.663Z,43.77
2023-03-22T07:47:37.663Z,42.57
2023-03-22T07:50:39.322Z,45.40
2023-03-22T07:53:11.259Z,44.43
2023-03-22T07:55:44.453Z,46.83
2023-03-22T07:58:15.450Z,49.80
2023-03-22T08:00:46.113Z,46.70
2023-03-22T08:03:36.640Z,45.27
2023-03-22T08:06:14.755Z,46.93
2023-03-22T08:08:45.049Z,47.33
2023-03-22T08:11:17.040Z,47.97
2023-03-22T08:13:47.439Z,45.00
2023-03-22T08:16:17.430Z,43.63
2023-03-22T08:18:49.828Z,45.80
2023-03-22T08:21:20.359Z,44.33
2023-03-22T08:23:55.699Z,43.90
2023-03-22T08:26:43.119Z,48.83
2023-03-22T08:29:25.425Z,57.47
2023-03-22T08:31:56.532Z,47.87
2023-03-22T08:34:26.967Z,50.35
2023-03-22T08:36:57.320Z,44.38
2023-03-22T08:39:28.765Z,46.45
2023-03-22T08:42:23.870Z,47.63
2023-03-22T08:44:54.294Z,55.45
2023-03-22T08:47:27.182Z,48.58
2023-03-22T08:50:02.620Z,51.33
2023-03-22T08:53:01.114Z,52.30
2023-03-22T08:55:37.995Z,55.33
2023-03-22T08:58:17.320Z,49.90
2023-03-22T09:01:13.431Z,52.80
2023-03-22T09:03:51.857Z,49.92
2023-03-22T09:06:21.925Z,50.90
2023-03-22T09:08:52.603Z,50.70
2023-03-22T09:11:26.217Z,54.03
2023-03-22T09:13:58.379Z,53.67
2023-03-22T09:16:28.738Z,50.40
2023-03-22T09:18:59.640Z,50.05
2023-03-22T09:21:30.882Z,49.88
2023-03-22T09:24:16.870Z,50.05
2023-03-22T09:26:50.588Z,56.58
2023-03-22T09:29:23.772Z,52.25
2023-03-22T09:31:54.119Z,55.17
2023-03-22T09:34:29.118Z,51.92
2023-03-22T09:37:03.029Z,53.95
2023-03-22T09:39:44.935Z,54.53
2023-03-22T09:42:30.307Z,56.70
2023-03-22T09:45:06.368Z,54.00
2023-03-22T09:47:44.857Z,51.65
2023-03-22T09:50:20.752Z,53.42
2023-03-22T09:52:51.869Z,66.65
2023-03-22T09:55:25.069Z,51.63
2023-03-22T09:58:05.322Z,53.42
2023-03-22T10:00:42.477Z,50.55
2023-03-22T10:03:21.957Z,55.22
2023-03-22T10:05:55.972Z,55.88
2023-03-22T10:08:46.485Z,51.00
2023-03-22T10:11:27.221Z,62.05
2023-03-22T10:14:03.991Z,57.50
2023-03-22T10:16:37.459Z,53.42
2023-03-22T10:19:15.490Z,54.85
2023-03-22T10:21:48.484Z,57.85
2023-03-22T10:24:22.393Z,53.28
2023-03-22T10:26:53.631Z,53.90
2023-03-22T10:29:28.274Z,51.83
2023-03-22T10:32:15.084Z,53.03
2023-03-22T10:34:45.898Z,52.33
2023-03-22T10:37:19.410Z,51.72
2023-03-22T10:39:52.610Z,50.33
2023-03-22T10:42:27.224Z,51.75
2023-03-22T10:45:01.132Z,52.92
2023-03-22T10:47:37.916Z,48.20
2023-03-22T10:50:14.487Z,49.67
2023-03-22T10:52:52.068Z,51.25
2023-03-22T10:55:22.207Z,48.25
2023-03-22T10:58:01.292Z,51.08
2023-03-22T11:00:33.203Z,48.40
2023-03-22T11:03:07.588Z,47.25
2023-03-22T11:05:38.156Z,50.90
2023-03-22T11:08:09.594Z,48.85
2023-03-22T11:10:40.086Z,44.15
2023-03-22T11:13:19.159Z,48.65
2023-03-22T11:15:56.831Z,47.95
2023-03-22T11:18:33.916Z,46.08
2023-03-22T11:21:09.466Z,47.97
2023-03-22T11:23:43.060Z,48.05
2023-03-22T11:26:15.527Z,45.65
2023-03-22T11:28:49.241Z,48.30
2023-03-22T11:31:22.291Z,43.80
2023-03-22T11:34:00.140Z,46.25
2023-03-22T11:36:31.484Z,43.08
2023-03-22T11:39:03.643Z,44.75
2023-03-22T11:41:38.370Z,48.40
2023-03-22T11:44:12.172Z,41.83
2023-03-22T11:46:50.498Z,40.60
2023-03-22T11:49:23.055Z,42.85
2023-03-22T11:51:55.156Z,42.28
2023-03-22T11:54:33.547Z,41.35
2023-03-22T11:57:11.035Z,47.65
2023-03-22T11:59:42.285Z,41.97
2023-03-22T12:02:21.789Z,45.50
2023-03-22T12:04:57.811Z,43.95
2023-03-22T12:07:29.730Z,40.65
2023-03-22T12:10:08.369Z,39.60
2023-03-22T12:12:44.017Z,44.90
2023-03-22T12:15:21.231Z,40.30
2023-03-22T12:17:56.601Z,39.92
2023-03-22T12:20:39.193Z,38.75
2023-03-22T12:23:17.654Z,37.35
2023-03-22T12:25:52.515Z,37.67
2023-03-22T12:28:25.473Z,37.03
2023-03-22T12:30:58.991Z,39.72
2023-03-22T12:33:31.657Z,40.72
2023-03-22T12:36:07.240Z,33.70
2023-03-22T12:38:42.434Z,33.25
2023-03-22T12:41:15.349Z,30.02
2023-03-22T12:43:51.781Z,29.63
2023-03-22T12:46:25.915Z,26.95
2023-03-22T12:49:03.451Z,33.67
2023-03-22T12:51:35.045Z,35.83
2023-03-22T12:54:06.110Z,32.38
2023-03-22T12:56:41.946Z,28.77
2023-03-22T12:59:18.713Z,29.00
2023-03-22T13:01:56.105Z,28.15
2023-03-22T13:04:33.314Z,28.55
2023-03-22T13:07:16.833Z,24.27
2023-03-22T13:09:47.755Z,22.02
2023-03-22T13:12:36.932Z,24.52
2023-03-22T13:15:41.315Z,25.75
2023-03-22T13:18:40.050Z,22.20
2023-03-22T13:21:17.018Z,22.38
2023-03-22T13:24:02.708Z,20.60
2023-03-22T13:26:41.530Z,22.88
2023-03-22T13:29:17.693Z,27.17
2023-03-22T13:31:59.025Z,21.27
2023-03-22T13:34:40.560Z,20.60
2023-03-22T13:37:25.725Z,21.70
2023-03-22T13:40:02.570Z,24.10
2023-03-22T13:42:38.131Z,23.60
2023-03-22T13:45:31.837Z,20.67
2023-03-22T13:48:08.210Z,18.00
2023-03-22T13:50:39.718Z,18.55
2023-03-22T13:53:17.850Z,19.00
2023-03-22T13:56:01.376Z,19.50
2023-03-22T13:58:39.080Z,20.00
2023-03-22T14:01:16.629Z,18.83
2023-03-22T14:03:48.685Z,21.15
2023-03-22T14:06:24.082Z,16.30
2023-03-22T14:08:59.926Z,17.77
2023-03-22T14:11:38.367Z,18.95
2023-03-22T14:14:13.689Z,17.30
2023-03-22T14:16:46.270Z,17.40
2023-03-22T14:19:21.310Z,18.00
